Nearby METAR Reports


KSYR - Syracuse, New York, USA
Distance from station: SE 5mi, 8km
Updated: Wed, 14-Nov-2018 5:54am EST
Light snow, Overcast
Light snow, Overcast
 Wind from WNW
Wind: WNW 13 mph , 20 km/h
Temperature: 25°F , -4°C
Wind Chill: 13°F , -11°C
Dew Point: 14°F , -10°C
Humidity: 63%
Barometer: 30.34 inHg , 1027.4 hPa
Summary: Light Snow
Clouds: Overcast
Visibility: 9 miles , 14 km
Cloud details: Few Clouds 2600 ft
Overcast 6000 ft
2018/11/14 10:54 KSYR 141054Z 30011KT 9SM -SN FEW026 OVC060 M04/M10 A3034 RMK AO2 SLP276 PCPN VRY LGT P0000 T10391100 $
KFZY - Fulton, New York, USA
Distance from station: NW 17mi, 27km
Updated: Wed, 14-Nov-2018 5:54am EST
Overcast
Overcast
 Wind from NNW
Wind: NNW 13 mph , 20 km/h
Temperature: 27°F , -3°C
Wind Chill: 16°F , -9°C
Dew Point: 10°F , -12°C
Humidity: 50%
Barometer: 30.34 inHg , 1027.4 hPa
Clouds: Overcast
Visibility: 10 miles , 16 km
Cloud details: Few Clouds 4200 ft
Overcast 6000 ft
2018/11/14 10:54 KFZY 141054Z AUTO 33011KT 10SM FEW042 OVC060 M03/M12 A3034 RMK AO2 SLP280 T10331117
 
KRME - Rome/Griffiss Af, New York, USA
Distance from station: E 39mi, 62km
Updated: Wed, 14-Nov-2018 5:53am EST
Overcast
Overcast
 Wind from WNW
Wind: WNW 17 mph , 28 km/h
Temperature: 25°F , -4°C
Wind Chill: 12°F , -11°C
Dew Point: 12°F , -11°C
Humidity: 59%
Barometer: 30.32 inHg , 1026.8 hPa
Clouds: Overcast
Visibility: 10 miles , 16 km
Cloud details: Overcast 7000 ft
2018/11/14 10:53 KRME 141053Z AUTO 30015KT 10SM OVC070 M04/M11 A3032 RMK AO2 PK WND 32026/1016 PRESRR SLP272 P0001 T10441106
KITH - Ithaca/Tompkins, New York, USA
Distance from station: SSW 51mi, 82km
Updated: Wed, 14-Nov-2018 12:56am EST
NOT Current
Overcast
Overcast
 Wind from WNW
Wind: WNW 24 mph , 39 km/h, Gust: 30 mph , 48 km/h
Temperature: 28°F , -2°C
Wind Chill: 14°F , -10°C
Dew Point: 21°F , -6°C
Humidity: 74%
Barometer: 30.19 inHg , 1022.4 hPa
Clouds: Overcast
Visibility: 10 miles , 16 km
Cloud details: Few Clouds 2700 ft
Overcast 6000 ft
2018/11/14 05:56 KITH 140556Z AUTO 29021G26KT 10SM FEW027 OVC060 M02/M06 A3019 RMK AO2 PK WND 29026/0554 SNB0457E20 SLP234 P0000 60000 T10171056 11011 21022 53008
 
KART - Watertown, New York, USA
Distance from station: N 56mi, 91km
Updated: Wed, 14-Nov-2018 5:56am EST
Overcast
Overcast
 Wind from NW
Wind: NW 13 mph , 20 km/h
Temperature: 21°F , -6°C
Wind Chill: 8°F , -13°C
Dew Point: 7°F , -14°C
Humidity: 54%
Barometer: 30.34 inHg , 1027.4 hPa
Clouds: Overcast
Visibility: 10 miles , 16 km
Cloud details: Overcast 6500 ft
2018/11/14 10:56 KART 141056Z AUTO 31011KT 10SM OVC065 M06/M14 A3034 RMK AO2 SLP282 T10611139
KPEO - Penn Yan, New York, USA
Distance from station: SW 58mi, 93km
Updated: Wed, 14-Nov-2018 5:53am EST
Overcast
Overcast
 Wind from W
Wind: W 8 mph , 13 km/h
Temperature: 27°F , -3°C
Wind Chill: 19°F , -7°C
Dew Point: 18°F , -8°C
Humidity: 69%
Barometer: 30.33 inHg , 1027.1 hPa
Clouds: Overcast
Visibility: 10 miles , 16 km
Cloud details: Few Clouds 3400 ft
Overcast 5500 ft
2018/11/14 10:53 KPEO 141053Z AUTO 28007KT 10SM FEW034 OVC055 M03/M08 A3033 RMK AO2 SLP284 T10281083
 
KGTB - Fort Drum/Wheele, New York, USA
Distance from station: NNE 64mi, 102km
Updated: Wed, 14-Nov-2018 5:56am EST
Overcast
Overcast
 Wind from W
Wind: W 10 mph , 17 km/h
Temperature: 21°F , -6°C
Wind Chill: 10°F , -12°C
Dew Point: 5°F , -15°C
Humidity: 49%
Barometer: 30.28 inHg , 1025.4 hPa
Clouds: Overcast
Visibility: 10 miles , 16 km
Cloud details: Overcast 7000 ft
2018/11/14 10:56 KGTB 141056Z AUTO 28009KT 10SM OVC070 M06/M15 A3028 RMK AO2 SLP265 T10651148
CWQP - Point Petre (mar, Ontario, Canada
Distance from station: NW 67mi, 107km
Updated: Wed, 14-Nov-2018 6:00am EST

 Wind from NNW
Wind: NNW 13 mph , 20 km/h, Gust: 20 mph , 31 km/h
Temperature: 21°F , -6°C
Wind Chill: 8°F , -13°C
Dew Point: 7°F , -14°C
Humidity: 54%
2018/11/14 11:00 CWQP 141100Z AUTO 33011G17KT M06/M14 RMK AO1 PK WND 32021/1026 SLP288 T10561141 53031
 
KBGM - Binghamton, New York, USA
Distance from station: S 67mi, 107km
Updated: Wed, 14-Nov-2018 5:53am EST
Overcast
Overcast
 Wind from NW
Wind: NW 9 mph , 15 km/h, Gust: 21 mph , 33 km/h
Temperature: 25°F , -4°C
Wind Chill: 16°F , -9°C
Dew Point: 14°F , -10°C
Humidity: 63%
Barometer: 30.25 inHg , 1024.4 hPa
Clouds: Overcast
Visibility: 10 miles , 16 km
Cloud details: Overcast 4600 ft
2018/11/14 10:53 KBGM 141053Z AUTO 31008G18KT 10SM OVC046 M04/M10 A3025 RMK AO2 SLP263 T10441100
CYGK - Kingston Arpt (m, Ontario, Canada
Distance from station: NNW 75mi, 121km
Updated: Wed, 14-Nov-2018 6:00am EST
Mostly cloudy
Mostly cloudy
 Wind from NW
Wind: NW 13 mph , 20 km/h, Gust: 21 mph , 33 km/h
Temperature: 19°F , -7°C
Wind Chill: 6°F , -14°C
Dew Point: 3°F , -16°C
Humidity: 49%
Barometer: 30.35 inHg , 1027.8 hPa
Clouds: Mostly cloudy
Visibility: 15 miles , 24 km
Cloud details: Few Clouds 4000 ft
Mostly cloudy 6700 ft
2018/11/14 11:00 CYGK 141100Z 31011G18KT 15SM FEW040 BKN067 M07/M16 A3035 RMK SC1AC6 SLP284